Time;durP1;ratioP1;P1;durP2;ratioP2;P2;SDS_P1;SDS_P2;PMS_P1;PMS_P2;Temp;Humidity;BMP_temperature;BMP_pressure;BME280_temperature;BME280_humidity;BME280_pressure;Samples;Min_cycle;Max_cycle;Signal;HPM_P1;HPM_P2
2022/05/10 00:00:30;;;;;;;5.32;2.53;;;;;;;11.42;60.19;100661.41;5095323;28;20020;-31
2022/05/10 00:02:59;;;;;;;6.25;2.50;;;;;;;11.15;60.83;100665.94;5114041;28;20447;-29
2022/05/10 00:05:30;;;;;;;7.18;2.90;;;;;;;10.93;62.25;100665.38;5095386;28;20464;-28
2022/05/10 00:07:56;;;;;;;6.65;2.47;;;;;;;11.03;62.25;100656.94;5095575;28;20039;-29
2022/05/10 00:10:23;;;;;;;4.78;2.00;;;;;;;10.93;62.79;100662.72;5113751;28;20031;-28
2022/05/10 00:12:49;;;;;;;5.50;2.30;;;;;;;10.98;62.62;100643.41;5095177;28;20034;-28
2022/05/10 00:15:14;;;;;;;6.07;2.55;;;;;;;11.00;63.17;100660.03;5095142;28;20020;-28
2022/05/10 00:17:41;;;;;;;4.93;2.50;;;;;;;10.44;64.41;100643.41;5113749;28;20059;-30
2022/05/10 00:20:11;;;;;;;6.65;2.90;;;;;;;10.60;63.65;100663.53;5095298;28;20617;-32
2022/05/10 00:22:37;;;;;;;6.00;2.78;;;;;;;10.34;64.26;100664.31;5095482;28;20143;-28
2022/05/10 00:25:06;;;;;;;6.97;3.17;;;;;;;9.92;65.87;100655.56;5095218;28;20031;-33
2022/05/10 00:27:32;;;;;;;6.25;2.90;;;;;;;10.02;64.66;100639.19;5113631;28;20123;-28
2022/05/10 00:29:57;;;;;;;7.28;3.17;;;;;;;9.97;65.51;100637.16;5113972;28;20527;-29
2022/05/10 00:32:28;;;;;;;7.22;3.40;;;;;;;9.94;65.45;100640.19;5095105;28;20548;-31
2022/05/10 00:34:54;;;;;;;8.27;3.50;;;;;;;10.32;64.66;100658.38;5095069;28;20030;-29
2022/05/10 00:37:21;;;;;;;10.55;2.92;;;;;;;10.32;64.51;100641.53;5094940;28;20039;-30
2022/05/10 00:39:47;;;;;;;6.72;3.00;;;;;;;10.63;63.23;100652.44;5094796;28;20071;-29
2022/05/10 00:42:22;;;;;;;6.60;3.25;;;;;;;10.71;63.20;100664.78;5113323;28;20058;-30
2022/05/10 00:45:02;;;;;;;7.63;3.15;;;;;;;11.00;62.33;100655.50;5095329;28;20522;-29
2022/05/10 00:47:40;;;;;;;9.10;3.35;;;;;;;10.96;62.52;100661.47;5095135;28;20031;-31
2022/05/10 00:50:12;;;;;;;6.53;3.20;;;;;;;11.03;62.75;100656.94;5113713;28;20063;-29
2022/05/10 00:53:19;;;;;;;5.82;3.10;;;;;;;10.94;62.44;100647.53;5094831;28;20069;-28
2022/05/10 00:55:54;;;;;;;8.77;2.80;;;;;;;10.67;63.23;100641.38;4990763;28;20053;-30
2022/05/10 00:58:25;;;;;;;5.50;3.28;;;;;;;10.56;64.33;100650.78;5007535;28;20131;-30
2022/05/10 01:00:54;;;;;;;7.47;3.35;;;;;;;10.64;63.89;100647.94;5049242;28;20035;-31
2022/05/10 01:03:28;;;;;;;7.32;3.53;;;;;;;10.64;63.66;100659.44;5091864;28;20623;-30
2022/05/10 01:06:34;;;;;;;7.25;3.40;;;;;;;11.04;63.02;100651.41;5110470;28;20450;-29
2022/05/10 01:09:03;;;;;;;8.60;3.13;;;;;;;10.77;64.00;100642.59;5091072;28;20039;-31
2022/05/10 01:11:28;;;;;;;;;;;;;;;10.69;63.04;100658.00;5110318;28;20044;-33
2022/05/10 01:14:10;;;;;;;6.45;3.00;;;;;;;10.64;63.26;100656.78;5109710;28;20341;-31
2022/05/10 01:16:36;;;;;;;5.35;2.80;;;;;;;10.58;62.94;100649.59;5091603;28;20042;-29
2022/05/10 01:19:01;;;;;;;7.63;2.85;;;;;;;10.48;64.56;100645.66;5091450;28;20457;-28
2022/05/10 01:21:41;;;;;;;6.35;2.97;;;;;;;10.49;64.17;100636.66;5109930;28;20060;-32
2022/05/10 01:24:42;;;;;;;6.57;2.95;;;;;;;10.48;64.49;100653.66;5091234;28;20085;-35
2022/05/10 01:27:39;;;;;;;6.80;3.15;;;;;;;10.31;65.12;100645.25;5085856;28;20048;-31
2022/05/10 01:30:14;;;;;;;12.40;4.50;;;;;;;10.22;65.81;100644.59;5091066;28;20176;-30
2022/05/10 01:36:07;;;;;;;7.88;4.18;;;;;;;9.93;67.02;100605.75;5109470;28;20078;-28
2022/05/10 01:38:33;;;;;;;11.82;3.92;;;;;;;10.02;66.02;100642.69;5067023;28;20742;-30
2022/05/10 01:41:34;;;;;;;8.30;3.70;;;;;;;10.18;65.14;100643.34;5109457;28;20024;-31
2022/05/10 01:44:25;;;;;;;8.82;4.13;;;;;;;10.03;66.05;100641.69;5076938;28;20035;-30
2022/05/10 01:46:56;;;;;;;6.38;3.55;;;;;;;9.72;67.21;100617.38;5090730;28;20023;-32
2022/05/10 01:49:26;;;;;;;8.88;3.42;;;;;;;9.85;68.23;100636.09;5091046;28;20027;-35
2022/05/10 01:52:35;;;;;;;6.35;2.60;;;;;;;9.65;68.86;100639.47;5109095;28;20114;-29
2022/05/10 01:55:16;;;;;;;6.28;2.65;;;;;;;9.56;68.35;100635.38;5069195;28;20050;-29
2022/05/10 01:57:41;;;;;;;6.00;2.97;;;;;;;9.81;67.70;100635.66;5109153;28;20582;-29
2022/05/10 02:00:19;;;;;;;6.53;3.42;;;;;;;9.93;66.91;100643.91;5109768;28;20159;-29
2022/05/10 02:02:51;;;;;;;7.65;3.33;;;;;;;9.87;66.28;100615.41;5090548;28;20035;-29
2022/05/10 02:05:26;;;;;;;6.45;3.15;;;;;;;9.80;67.36;100628.69;5090601;28;20035;-30
2022/05/10 02:07:56;;;;;;;9.63;4.03;;;;;;;10.12;66.74;100623.66;5089219;28;20060;-28
2022/05/10 02:10:29;;;;;;;8.60;2.72;;;;;;;9.97;66.02;100607.84;5090481;28;20122;-28
2022/05/10 02:13:02;;;;;;;7.80;3.53;;;;;;;10.25;65.55;100628.16;5090127;28;20159;-28
2022/05/10 02:15:40;;;;;;;7.47;3.10;;;;;;;10.04;65.89;100637.16;5108809;28;20411;-33
2022/05/10 02:18:20;;;;;;;7.27;3.33;;;;;;;9.83;65.97;100622.16;5090024;28;20161;-31
2022/05/10 02:20:52;;;;;;;8.05;3.70;;;;;;;9.70;66.54;100624.75;5090357;28;20111;-28
2022/05/10 02:23:36;;;;;;;9.57;3.70;;;;;;;9.57;68.64;100634.34;5090372;28;20039;-31
2022/05/10 02:26:19;;;;;;;12.20;5.75;;;;;;;9.63;67.20;100628.22;5108652;28;20023;-28
2022/05/10 02:29:01;;;;;;;14.10;6.18;;;;;;;9.59;66.70;100608.31;5090512;28;20032;-31
2022/05/10 02:34:42;;;;;;;7.32;3.55;;;;;;;9.54;67.02;100625.91;5108287;28;20868;-33
2022/05/10 02:37:07;;;;;;;8.45;3.45;;;;;;;9.19;67.94;100613.47;5089986;28;20479;-30
2022/05/10 02:39:33;;;;;;;5.60;3.22;;;;;;;8.94;69.71;100625.59;5107898;28;20103;-30
2022/05/10 02:42:00;;;;;;;10.43;4.47;;;;;;;8.75;71.68;100638.53;5108214;28;20027;-29
2022/05/10 02:44:27;;;;;;;7.25;3.70;;;;;;;8.80;71.28;100643.28;5089697;28;20047;-32
2022/05/10 02:46:52;;;;;;;8.60;3.47;;;;;;;8.90;70.50;100642.94;5089436;28;20043;-29
2022/05/10 02:49:18;;;;;;;4.88;2.60;;;;;;;8.70;70.52;100638.28;5089421;28;20064;-28
2022/05/10 02:51:44;;;;;;;6.78;3.35;;;;;;;8.92;69.49;100639.06;5089287;28;20388;-29
2022/05/10 02:54:09;;;;;;;12.90;4.45;;;;;;;8.47;71.12;100646.47;5108253;28;20484;-31
2022/05/10 02:56:36;;;;;;;7.40;3.28;;;;;;;8.15;71.88;100621.19;5107856;28;20039;-32
2022/05/10 02:59:04;;;;;;;7.45;3.40;;;;;;;8.73;70.10;100637.91;5089657;28;20423;-28
2022/05/10 03:01:53;;;;;;;;;;;;;;;8.98;69.01;100638.28;5089806;28;20142;-28
2022/05/10 03:04:19;;;;;;;9.00;3.78;;;;;;;8.98;69.25;100632.97;5099438;28;19911;-28
2022/05/10 03:06:49;;;;;;;6.70;3.67;;;;;;;8.71;70.75;100631.16;5108011;28;20552;-29
2022/05/10 03:09:15;;;;;;;7.18;3.47;;;;;;;8.68;71.29;100637.66;5107966;28;20107;-30
2022/05/10 03:11:41;;;;;;;7.78;3.50;;;;;;;8.43;71.93;100635.41;5107361;28;20035;-29
2022/05/10 03:14:09;;;;;;;10.52;4.82;;;;;;;8.57;71.32;100614.25;5089116;28;20077;-33
2022/05/10 03:16:35;;;;;;;16.03;4.70;;;;;;;8.51;71.39;100615.84;5089436;28;20039;-31
2022/05/10 03:19:01;;;;;;;11.48;4.78;;;;;;;8.50;72.11;100637.28;5107220;28;20155;-29
2022/05/10 03:21:27;;;;;;;9.55;4.57;;;;;;;8.45;72.47;100636.03;5089329;28;20110;-30
2022/05/10 03:23:53;;;;;;;8.63;4.57;;;;;;;8.19;72.25;100623.31;5107546;28;20394;-31
2022/05/10 03:26:26;;;;;;;9.20;3.50;;;;;;;8.01;73.92;100636.19;5089226;28;20471;-30
2022/05/10 03:28:52;;;;;;;7.93;3.67;;;;;;;8.42;72.43;100640.94;5089114;28;20392;-29
2022/05/10 03:31:18;;;;;;;6.70;3.60;;;;;;;7.97;73.74;100622.47;5088904;28;20038;-31
2022/05/10 03:33:45;;;;;;;12.43;4.18;;;;;;;8.68;71.92;100632.34;5107364;28;20096;-30
2022/05/10 03:36:10;;;;;;;8.30;3.35;;;;;;;9.07;70.57;100630.97;5088908;28;20039;-31
2022/05/10 03:38:36;;;;;;;7.57;3.83;;;;;;;9.13;70.07;100619.56;5107340;28;20044;-32
2022/05/10 03:41:03;;;;;;;8.20;3.67;;;;;;;8.40;72.97;100641.06;5107581;28;20083;-31
2022/05/10 03:43:28;;;;;;;7.55;3.78;;;;;;;8.62;69.93;100628.63;5107401;28;20468;-28
2022/05/10 03:45:54;;;;;;;10.65;5.07;;;;;;;8.54;70.68;100644.72;5107405;28;20106;-30
2022/05/10 03:48:20;;;;;;;7.35;3.85;;;;;;;8.50;70.43;100611.56;5089372;28;20032;-29
2022/05/10 03:50:45;;;;;;;7.78;4.35;;;;;;;8.32;72.19;100635.91;5107610;28;20031;-29
2022/05/10 03:53:11;;;;;;;9.27;4.13;;;;;;;8.43;71.40;100634.59;5107236;28;20029;-29
2022/05/10 03:55:36;;;;;;;9.88;3.38;;;;;;;8.48;71.97;100636.66;5106921;28;20020;-32
2022/05/10 03:58:03;;;;;;;12.95;4.07;;;;;;;8.34;71.86;100631.22;5107086;28;20050;-28
2022/05/10 04:00:29;;;;;;;11.00;4.90;;;;;;;8.67;72.23;100657.28;5088724;28;20058;-28
2022/05/10 04:02:56;;;;;;;8.60;4.45;;;;;;;8.58;72.94;100632.69;5107300;28;20100;-29
2022/05/10 04:05:23;;;;;;;9.65;4.22;;;;;;;8.90;71.88;100656.25;5088773;28;20055;-31
2022/05/10 04:07:49;;;;;;;8.95;4.72;;;;;;;8.84;72.11;100658.66;5088442;28;20049;-28
2022/05/10 04:10:16;;;;;;;8.82;5.43;;;;;;;8.96;72.75;100658.13;5088700;28;20034;-29
2022/05/10 04:12:42;;;;;;;8.43;5.57;;;;;;;8.74;73.05;100644.84;5106857;28;20035;-31
2022/05/10 04:15:14;;;;;;;8.57;3.88;;;;;;;9.03;72.97;100656.31;5088843;28;20032;-29
2022/05/10 04:17:42;;;;;;;7.97;4.45;;;;;;;8.89;73.90;100665.22;5088489;28;20035;-30
2022/05/10 04:20:08;;;;;;;7.85;4.70;;;;;;;9.00;73.42;100665.53;5089012;28;20396;-29
2022/05/10 04:22:34;;;;;;;8.95;4.30;;;;;;;9.04;73.66;100642.03;5088546;28;20043;-29
2022/05/10 04:25:00;;;;;;;8.82;4.88;;;;;;;9.58;71.50;100654.63;5106833;28;20038;-29
2022/05/10 04:27:25;;;;;;;8.13;4.72;;;;;;;9.64;71.62;100643.19;5088881;28;20028;-32
2022/05/10 04:29:50;;;;;;;8.77;4.55;;;;;;;9.90;71.30;100646.94;5088798;28;20399;-30
2022/05/10 04:32:16;;;;;;;7.95;4.47;;;;;;;10.04;71.21;100651.28;5111206;28;20556;-30
2022/05/10 04:34:41;;;;;;;9.40;4.38;;;;;;;9.92;72.42;100654.75;5110878;28;20036;-33
2022/05/10 04:37:07;;;;;;;7.88;3.95;;;;;;;9.79;73.52;100655.53;5111103;28;20028;-29
2022/05/10 04:42:16;;;;;;;6.30;4.03;;;;;;;9.79;73.90;100635.03;5110661;28;20106;-32
2022/05/10 04:44:42;;;;;;;8.20;4.10;;;;;;;10.03;73.45;100636.34;5092080;28;20126;-29
2022/05/10 04:47:08;;;;;;;10.23;4.00;;;;;;;10.21;73.66;100646.41;5110453;28;20471;-29
2022/05/10 04:49:33;;;;;;;9.02;4.75;;;;;;;10.34;74.25;100640.31;5110145;28;20027;-31
2022/05/10 04:51:58;;;;;;;7.88;4.85;;;;;;;10.47;74.32;100630.69;5110253;28;20026;-31
2022/05/10 04:54:24;;;;;;;11.63;4.28;;;;;;;10.72;72.56;100658.41;5110037;28;20023;-29
2022/05/10 04:56:49;;;;;;;8.35;4.70;;;;;;;10.65;72.10;100645.06;5110223;28;20036;-29
2022/05/10 04:59:15;;;;;;;8.63;4.72;;;;;;;10.81;71.45;100659.03;5091776;28;20026;-29
2022/05/10 05:01:40;;;;;;;7.10;4.20;;;;;;;10.96;70.81;100645.47;5091440;28;20039;-30
2022/05/10 05:04:06;;;;;;;7.55;4.60;;;;;;;10.98;70.56;100654.09;5092007;28;20047;-30
2022/05/10 05:06:33;;;;;;;8.15;4.47;;;;;;;11.33;69.78;100651.16;5091802;28;20124;-32
2022/05/10 05:08:59;;;;;;;10.43;4.38;;;;;;;11.53;69.11;100656.44;5104170;28;20031;-31
2022/05/10 05:11:25;;;;;;;8.25;4.65;;;;;;;11.69;68.04;100628.41;5088346;28;20028;-30
2022/05/10 05:13:51;;;;;;;8.68;4.63;;;;;;;11.55;67.25;100623.13;5077866;28;20112;-30
2022/05/10 05:16:17;;;;;;;7.20;4.43;;;;;;;11.91;67.36;100653.84;5109661;28;20776;-31
2022/05/10 05:18:43;;;;;;;10.38;4.28;;;;;;;11.98;67.60;100654.63;5109263;27;20031;-31
2022/05/10 05:21:09;;;;;;;8.07;4.50;;;;;;;11.98;67.03;100641.25;5109571;28;20038;-32
2022/05/10 05:23:34;;;;;;;7.88;4.68;;;;;;;12.42;67.09;100658.28;5089100;28;20039;-31
2022/05/10 05:26:00;;;;;;;7.95;4.28;;;;;;;12.70;65.51;100645.50;5091245;28;20034;-31
2022/05/10 05:28:25;;;;;;;7.95;4.45;;;;;;;12.92;65.07;100645.94;5122865;27;20031;-34
2022/05/10 05:30:52;;;;;;;8.43;4.10;;;;;;;12.96;63.34;100650.63;5111599;27;20768;-29
2022/05/10 05:33:17;;;;;;;7.30;3.92;;;;;;;12.76;62.93;100634.75;5111259;27;20031;-29
2022/05/10 05:35:43;;;;;;;7.63;3.70;;;;;;;13.00;62.88;100653.69;5111030;27;20042;-31
2022/05/10 05:38:09;;;;;;;7.03;3.67;;;;;;;12.95;62.96;100650.84;5129751;27;20066;-31
2022/05/10 05:40:36;;;;;;;7.47;4.05;;;;;;;13.14;61.48;100651.72;5111396;27;20126;-29
2022/05/10 05:43:02;;;;;;;6.47;4.00;;;;;;;13.04;62.17;100631.59;5110992;27;20031;-30
2022/05/10 05:45:27;;;;;;;7.20;3.13;;;;;;;12.96;62.00;100633.75;5111153;27;20035;-31
2022/05/10 05:47:53;;;;;;;6.95;3.40;;;;;;;13.24;61.82;100650.16;5110985;27;20027;-29
2022/05/10 05:50:22;;;;;;;6.63;3.33;;;;;;;13.31;60.27;100636.72;5111162;27;20020;-29
2022/05/10 05:52:49;;;;;;;6.68;3.38;;;;;;;13.39;59.64;100657.84;5110914;27;20031;-29
2022/05/10 05:55:17;;;;;;;7.18;3.28;;;;;;;13.56;61.46;100647.34;5111174;27;20034;-28
2022/05/10 05:57:43;;;;;;;9.73;4.15;;;;;;;13.55;62.94;100644.91;5110576;27;20038;-31
2022/05/10 06:00:13;;;;;;;6.53;3.70;;;;;;;13.81;61.33;100652.63;5110613;27;20031;-31
2022/05/10 06:02:40;;;;;;;6.95;3.65;;;;;;;13.90;61.53;100623.63;5110669;27;20031;-31
2022/05/10 06:05:06;;;;;;;7.50;3.40;;;;;;;14.09;57.65;100645.03;5110074;27;20033;-33
2022/05/10 06:07:32;;;;;;;5.32;3.03;;;;;;;14.33;57.48;100654.00;5129232;27;20027;-29
2022/05/10 06:09:58;;;;;;;5.38;2.92;;;;;;;14.45;56.94;100658.34;5110831;27;20038;-29
2022/05/10 06:12:24;;;;;;;5.50;3.08;;;;;;;14.73;55.16;100654.22;5127658;27;20060;-34
2022/05/10 06:14:49;;;;;;;6.43;3.40;;;;;;;14.68;56.15;100656.75;5110647;27;20050;-30
2022/05/10 06:17:15;;;;;;;9.98;5.43;;;;;;;14.95;55.80;100659.81;5129204;27;20106;-29
2022/05/10 06:19:42;;;;;;;10.88;3.08;;;;;;;15.25;54.42;100661.56;5128663;27;20054;-32
2022/05/10 06:22:10;;;;;;;4.85;2.83;;;;;;;15.25;54.53;100646.25;5110436;27;20069;-30
2022/05/10 06:24:36;;;;;;;7.60;3.20;;;;;;;15.06;54.27;100653.63;5127544;27;20023;-32
2022/05/10 06:27:04;;;;;;;6.28;3.33;;;;;;;15.20;54.23;100669.50;5110210;27;20107;-32
2022/05/10 06:29:30;;;;;;;7.57;3.13;;;;;;;15.44;54.57;100667.63;5110208;27;20522;-29
2022/05/10 06:31:56;;;;;;;13.57;6.50;;;;;;;14.98;54.64;100651.31;5110117;27;20031;-31
2022/05/10 06:34:21;;;;;;;6.65;3.60;;;;;;;14.83;54.74;100665.19;5128515;27;20571;-29
2022/05/10 06:36:47;;;;;;;7.68;4.00;;;;;;;15.15;55.49;100662.16;5110134;27;20080;-39
2022/05/10 06:39:12;;;;;;;8.20;4.53;;;;;;;15.43;55.14;100666.81;5108130;27;20734;-32
2022/05/10 06:41:38;;;;;;;10.15;4.82;;;;;;;15.27;54.87;100670.22;5128085;27;20483;-28
2022/05/10 06:44:04;;;;;;;10.73;4.43;;;;;;;15.36;55.83;100658.03;5128370;27;20037;-31
2022/05/10 06:46:32;;;;;;;6.68;4.22;;;;;;;15.74;54.23;100666.66;5109795;27;20118;-32
2022/05/10 06:48:58;;;;;;;11.95;5.13;;;;;;;15.85;54.05;100649.66;5128009;27;20497;-31
2022/05/10 06:51:25;;;;;;;9.10;4.82;;;;;;;16.27;55.44;100639.41;5109296;27;20031;-36
2022/05/10 06:53:51;;;;;;;8.52;4.60;;;;;;;16.42;53.79;100651.50;5088381;28;20038;-33
2022/05/10 06:56:17;;;;;;;10.73;5.50;;;;;;;16.67;53.04;100662.69;5089414;28;20031;-30
2022/05/10 06:58:43;;;;;;;11.75;5.25;;;;;;;16.83;53.40;100634.13;5108254;28;20030;-29
2022/05/10 07:01:12;;;;;;;8.65;4.88;;;;;;;16.85;54.13;100653.56;5107599;28;20032;-30
2022/05/10 07:03:49;;;;;;;7.70;4.47;;;;;;;16.94;53.16;100661.22;5106188;28;20028;-29
2022/05/10 07:06:17;;;;;;;10.17;5.27;;;;;;;17.04;51.40;100654.13;5107919;28;20032;-29
2022/05/10 07:08:43;;;;;;;8.02;4.13;;;;;;;17.10;52.35;100654.19;5089245;28;20031;-29
2022/05/10 07:11:12;;;;;;;8.85;4.50;;;;;;;16.72;52.94;100658.47;5089315;28;20498;-33
2022/05/10 07:13:38;;;;;;;7.97;4.28;;;;;;;17.05;52.59;100636.09;5088710;28;20023;-29
2022/05/10 07:16:04;;;;;;;11.15;4.45;;;;;;;17.19;52.99;100641.94;5088579;28;20039;-30
2022/05/10 07:18:30;;;;;;;8.27;4.38;;;;;;;17.25;50.08;100652.53;5089222;28;20023;-33
2022/05/10 07:20:55;;;;;;;9.00;4.20;;;;;;;17.20;52.02;100643.56;5088827;28;20063;-30
2022/05/10 07:23:27;;;;;;;8.40;4.80;;;;;;;17.47;51.67;100662.53;5107461;28;20063;-31
2022/05/10 07:25:53;;;;;;;10.00;4.90;;;;;;;17.67;52.17;100660.09;5107124;28;20536;-33
2022/05/10 07:28:19;;;;;;;9.20;5.00;;;;;;;17.81;51.11;100651.59;5107307;28;20027;-29
2022/05/10 07:30:45;;;;;;;7.93;5.38;;;;;;;17.91;49.84;100643.66;5107434;28;20039;-32
2022/05/10 07:33:11;;;;;;;8.25;3.53;;;;;;;18.04;49.49;100635.16;5107154;28;20297;-31
2022/05/10 07:38:21;;;;;;;8.38;4.30;;;;;;;18.05;49.65;100644.88;5107378;28;20070;-33
2022/05/10 07:40:49;;;;;;;11.25;4.00;;;;;;;18.21;50.82;100651.25;5107051;28;20015;-31
2022/05/10 07:43:17;;;;;;;6.78;4.18;;;;;;;18.37;47.77;100654.91;5107107;28;20035;-32
2022/05/10 07:45:45;;;;;;;8.23;3.75;;;;;;;18.09;48.50;100650.59;5105509;28;20119;-31
2022/05/10 07:48:12;;;;;;;9.10;3.78;;;;;;;18.59;48.36;100654.84;5088707;28;20446;-38
2022/05/10 07:50:38;;;;;;;9.00;3.50;;;;;;;18.58;46.93;100636.19;5105805;28;20091;-30
2022/05/10 07:53:06;;;;;;;9.57;3.50;;;;;;;18.74;46.23;100632.53;5088524;28;20036;-32
2022/05/10 07:55:36;;;;;;;8.30;3.28;;;;;;;19.01;45.36;100647.88;5106699;28;20032;-29
2022/05/10 07:58:04;;;;;;;8.32;3.28;;;;;;;19.20;45.93;100649.03;5088642;28;20464;-30
2022/05/10 08:00:31;;;;;;;8.18;3.20;;;;;;;19.42;47.96;100650.78;5088704;28;20036;-29
2022/05/10 08:02:56;;;;;;;6.20;3.33;;;;;;;19.24;44.94;100633.91;5088517;28;20041;-30
2022/05/10 08:05:25;;;;;;;7.32;3.50;;;;;;;19.38;46.33;100634.28;5109855;28;20023;-32
2022/05/10 08:07:51;;;;;;;8.15;3.60;;;;;;;19.64;45.68;100647.91;5092411;28;20036;-32
2022/05/10 08:10:18;;;;;;;7.22;3.22;;;;;;;19.53;45.41;100652.44;5109337;28;20038;-32
2022/05/10 08:12:44;;;;;;;5.55;2.60;;;;;;;19.91;44.30;100646.94;5110996;28;20062;-35
2022/05/10 08:15:10;;;;;;;5.13;3.10;;;;;;;19.70;43.91;100654.97;5092673;28;20059;-30
2022/05/10 08:17:35;;;;;;;6.65;3.00;;;;;;;20.06;44.12;100639.69;5092111;28;20462;-30
2022/05/10 08:20:01;;;;;;;6.25;3.35;;;;;;;20.19;45.00;100632.13;5110612;28;20027;-30
2022/05/10 08:22:26;;;;;;;7.03;3.20;;;;;;;20.31;43.26;100627.25;5110693;28;20035;-31
2022/05/10 08:24:52;;;;;;;9.77;2.80;;;;;;;20.37;43.81;100642.41;5109144;28;20031;-29
2022/05/10 08:27:17;;;;;;;5.18;2.63;;;;;;;20.61;46.30;100640.00;5110851;28;20089;-31
2022/05/10 08:29:43;;;;;;;5.72;2.45;;;;;;;20.51;42.38;100617.47;5110637;28;20031;-29
2022/05/10 08:32:08;;;;;;;5.13;2.53;;;;;;;20.69;40.38;100621.56;5110708;28;20032;-29
2022/05/10 08:34:35;;;;;;;4.75;2.58;;;;;;;20.92;39.65;100639.16;5110685;28;20023;-32
2022/05/10 08:37:04;;;;;;;6.70;2.40;;;;;;;21.16;39.57;100633.94;5110381;28;20051;-34
2022/05/10 08:39:30;;;;;;;6.07;2.20;;;;;;;21.28;40.59;100629.03;5091604;28;20060;-31
2022/05/10 08:42:04;;;;;;;4.40;1.80;;;;;;;21.46;40.06;100630.34;5091699;28;20032;-29
2022/05/10 08:44:35;;;;;;;4.88;2.03;;;;;;;21.54;37.97;100640.63;5092021;28;20027;-32
2022/05/10 08:47:06;;;;;;;4.13;1.92;;;;;;;21.37;38.06;100635.53;5091932;28;20039;-29
2022/05/10 08:49:36;;;;;;;5.13;1.92;;;;;;;21.79;40.77;100636.16;5091558;28;20027;-32
2022/05/10 08:52:08;;;;;;;6.05;2.92;;;;;;;21.79;36.37;100630.72;5091831;28;20037;-30
2022/05/10 08:54:37;;;;;;;5.60;2.10;;;;;;;22.16;37.48;100626.69;5091793;28;20047;-29
2022/05/10 08:57:09;;;;;;;6.70;2.35;;;;;;;22.51;37.10;100620.19;5091653;28;20032;-30
2022/05/10 08:59:37;;;;;;;4.22;1.75;;;;;;;22.70;36.81;100633.91;5110188;28;20031;-31
2022/05/10 09:02:09;;;;;;;6.40;2.03;;;;;;;22.69;34.62;100610.53;5109832;28;20152;-30
2022/05/10 09:05:04;;;;;;;3.60;1.80;;;;;;;22.97;32.55;100629.84;5089604;28;20038;-29
2022/05/10 09:07:55;;;;;;;3.75;1.80;;;;;;;23.05;32.03;100627.31;5091107;28;20034;-36
2022/05/10 09:10:49;;;;;;;3.22;1.75;;;;;;;23.51;34.26;100623.22;5110343;27;20091;-30
2022/05/10 09:13:16;;;;;;;4.30;2.10;;;;;;;23.13;31.43;100625.06;5109786;28;20054;-33
2022/05/10 09:15:49;;;;;;;2.85;1.88;;;;;;;22.87;33.16;100617.94;5090431;28;20054;-30
2022/05/10 09:18:21;;;;;;;4.03;2.05;;;;;;;23.15;32.04;100622.84;5090725;28;20034;-31
2022/05/10 09:21:25;;;;;;;10.75;2.90;;;;;;;23.32;30.88;100630.56;5108260;28;20119;-30
2022/05/10 09:24:06;;;;;;;3.45;1.65;;;;;;;23.18;31.25;100619.56;5060407;28;20060;-32
2022/05/10 09:26:35;;;;;;;3.22;2.08;;;;;;;23.75;30.52;100609.56;5112191;27;20042;-32
2022/05/10 09:29:13;;;;;;;3.95;1.60;;;;;;;23.90;30.36;100600.41;5111049;27;20091;-32
2022/05/10 09:37:31;;;;;;;6.45;1.92;;;;;;;24.60;28.35;100612.38;5109421;28;20112;-32
2022/05/10 09:39:57;;;;;;;5.60;1.80;;;;;;;24.95;28.40;100608.22;5090678;28;20051;-32
2022/05/10 09:42:30;;;;;;;3.20;1.92;;;;;;;24.69;28.65;100594.22;5109857;27;20039;-30
2022/05/10 09:45:02;;;;;;;4.97;1.88;;;;;;;25.21;29.80;100608.56;5107570;28;20027;-34
2022/05/10 09:47:27;;;;;;;4.78;1.58;;;;;;;25.46;28.43;100609.13;5108752;28;20118;-29
2022/05/10 09:49:54;;;;;;;11.20;2.15;;;;;;;25.09;28.85;100583.66;5108665;28;20114;-31
2022/05/10 09:52:27;;;;;;;5.10;1.60;;;;;;;24.76;29.28;100594.63;5090489;28;20036;-32
2022/05/10 09:54:56;;;;;;;4.22;2.00;;;;;;;25.09;30.04;100586.38;5090574;28;20069;-30
2022/05/10 09:57:30;;;;;;;3.63;1.80;;;;;;;25.30;28.76;100599.66;5090272;28;20035;-29
2022/05/10 09:59:56;;;;;;;4.43;1.70;;;;;;;25.28;28.50;100578.09;5090384;28;20688;-32
2022/05/10 10:02:28;;;;;;;5.00;1.98;;;;;;;25.26;29.17;100600.25;5108889;28;20027;-33
2022/05/10 10:04:53;;;;;;;4.25;1.65;;;;;;;25.30;27.64;100596.91;5090416;28;20028;-31
2022/05/10 10:07:24;;;;;;;2.97;1.60;;;;;;;25.18;28.45;100573.63;5108877;28;20149;-30
2022/05/10 10:09:55;;;;;;;5.25;1.92;;;;;;;25.49;26.78;100594.84;5108379;28;20063;-34
2022/05/10 10:12:26;;;;;;;3.80;1.80;;;;;;;25.70;25.53;100583.47;5108682;28;20479;-30
2022/05/10 10:14:52;;;;;;;5.80;1.83;;;;;;;25.78;26.43;100582.75;5108385;28;20024;-32
2022/05/10 10:17:22;;;;;;;3.75;1.50;;;;;;;26.13;27.07;100574.84;5108315;28;20595;-29
2022/05/10 10:19:57;;;;;;;3.78;1.45;;;;;;;26.35;25.47;100554.88;5089714;28;20059;-30
2022/05/10 10:22:32;;;;;;;4.45;1.63;;;;;;;26.37;24.12;100564.38;5108667;28;20039;-29
2022/05/10 10:25:04;;;;;;;2.88;1.55;;;;;;;26.46;25.10;100559.78;5089862;28;20027;-30
2022/05/10 10:27:45;;;;;;;3.58;1.95;;;;;;;26.33;25.73;100562.59;5089165;28;20152;-31
2022/05/10 10:30:20;;;;;;;4.60;1.70;;;;;;;26.13;26.32;100548.31;5089939;28;20035;-30
2022/05/10 10:32:58;;;;;;;3.78;1.65;;;;;;;26.31;26.34;100565.63;5108281;28;20114;-30
2022/05/10 10:35:37;;;;;;;4.78;1.85;;;;;;;26.04;27.22;100552.94;5089922;28;20050;-33
2022/05/10 10:38:08;;;;;;;3.63;1.70;;;;;;;26.03;26.09;100546.66;5089096;28;20384;-30
2022/05/10 10:40:39;;;;;;;5.93;1.60;;;;;;;26.29;28.76;100540.53;5089839;28;20498;-32
2022/05/10 10:43:26;;;;;;;6.45;1.73;;;;;;;26.31;28.23;100543.75;5089719;28;20039;-31
2022/05/10 10:46:10;;;;;;;5.03;1.70;;;;;;;26.25;26.93;100545.84;5089304;28;20034;-30
2022/05/10 10:48:46;;;;;;;5.35;1.92;;;;;;;26.67;26.54;100537.38;5089656;28;20030;-38
2022/05/10 10:51:12;;;;;;;7.80;1.63;;;;;;;27.20;24.26;100522.72;5089514;28;20082;-39
2022/05/10 10:53:39;;;;;;;3.75;1.60;;;;;;;27.15;21.15;100544.75;5088992;28;20049;-30
2022/05/10 10:56:56;;;;;;;2.97;1.10;;;;;;;27.28;20.98;100532.09;5089631;28;20031;-31
2022/05/10 10:59:48;;;;;;;4.13;1.15;;;;;;;27.60;21.89;100539.06;5073040;28;20546;-30
2022/05/10 11:02:35;;;;;;;3.15;1.20;;;;;;;27.15;18.89;100533.00;5089551;28;20065;-29
2022/05/10 11:05:04;;;;;;;2.67;1.30;;;;;;;27.03;20.57;100531.72;5105545;28;20035;-32
2022/05/10 11:07:49;;;;;;;3.78;1.00;;;;;;;27.04;19.02;100544.25;5106130;28;20086;-41
2022/05/10 11:10:41;;;;;;;1.88;1.00;;;;;;;27.21;18.38;100529.00;5107660;28;20025;-31
2022/05/10 11:13:32;;;;;;;3.58;1.10;;;;;;;27.72;20.83;100513.72;5088981;28;20127;-32
2022/05/10 11:16:17;;;;;;;2.63;1.00;;;;;;;28.08;18.18;100520.03;5089276;28;20035;-31
2022/05/10 11:19:04;;;;;;;11.80;2.03;;;;;;;27.61;19.65;100524.22;5105939;28;20027;-33
2022/05/10 11:21:48;;;;;;;;;;;;;;;27.78;18.87;100519.88;5107662;28;20471;-39
2022/05/10 11:24:39;;;;;;;3.30;1.50;;;;;;;27.29;18.31;100508.25;5107398;28;20310;-35
2022/05/10 11:27:26;;;;;;;3.42;1.40;;;;;;;28.19;20.06;100515.78;5092403;28;20519;-31
2022/05/10 11:30:35;;;;;;;2.38;0.98;;;;;;;28.31;18.72;100507.69;5107156;28;20220;-33
2022/05/10 11:33:13;;;;;;;3.55;1.23;;;;;;;27.87;20.40;100496.03;5061609;28;20039;-34
2022/05/10 11:35:58;;;;;;;6.25;1.50;;;;;;;27.90;20.15;100503.59;5088734;28;20027;-30
2022/05/10 11:38:42;;;;;;;3.47;1.25;;;;;;;28.20;18.70;100507.25;5106738;28;20422;-34
2022/05/10 11:41:28;;;;;;;3.08;1.20;;;;;;;28.23;21.19;100500.28;5088970;28;20027;-31
2022/05/10 11:43:56;;;;;;;4.13;0.95;;;;;;;28.21;17.48;100508.84;5088525;28;20100;-31
2022/05/10 11:46:31;;;;;;;2.03;0.80;;;;;;;28.53;17.72;100497.66;5107153;28;20419;-33
2022/05/10 11:49:28;;;;;;;3.00;0.90;;;;;;;28.85;16.24;100507.16;5105287;28;20103;-32
2022/05/10 11:52:19;;;;;;;4.32;1.35;;;;;;;28.33;15.63;100491.72;5106572;28;20061;-31
2022/05/10 11:55:21;;;;;;;1.70;0.88;;;;;;;28.20;17.21;100496.28;5088626;28;20042;-35
2022/05/10 11:57:48;;;;;;;2.90;0.80;;;;;;;28.44;16.91;100473.75;5088642;28;20132;-31
2022/05/10 12:00:26;;;;;;;1.90;0.90;;;;;;;28.24;14.94;100491.75;5107121;28;20023;-39
2022/05/10 12:02:52;;;;;;;1.77;0.70;;;;;;;28.33;14.19;100488.16;5106896;28;20027;-34